createdAt,value
2023-09-12T00:01:13.690Z,12.34
2023-09-12T00:03:41.496Z,12.38
2023-09-12T00:06:08.945Z,12.28
2023-09-12T00:08:36.326Z,12.20
2023-09-12T00:11:07.702Z,11.77
2023-09-12T00:13:35.156Z,11.63
2023-09-12T00:16:03.401Z,11.82
2023-09-12T00:18:31.297Z,11.81
2023-09-12T00:21:02.199Z,11.88
2023-09-12T00:23:29.894Z,12.08
2023-09-12T00:25:58.548Z,11.89
2023-09-12T00:28:26.097Z,11.83
2023-09-12T00:30:54.103Z,11.75
2023-09-12T00:33:22.033Z,11.70
2023-09-12T00:35:49.505Z,11.76
2023-09-12T00:38:16.822Z,11.75
2023-09-12T00:40:44.464Z,11.81
2023-09-12T00:43:12.068Z,11.70
2023-09-12T00:45:39.819Z,11.52
2023-09-12T00:48:09.166Z,11.69
2023-09-12T00:50:37.924Z,11.69
2023-09-12T00:53:05.776Z,11.71
2023-09-12T00:55:36.224Z,11.59
2023-09-12T00:58:04.102Z,11.60
2023-09-12T01:00:31.873Z,11.65
2023-09-12T01:02:59.851Z,11.69
2023-09-12T01:05:28.450Z,11.68
2023-09-12T01:07:57.038Z,11.70
2023-09-12T01:10:24.919Z,11.53
2023-09-12T01:12:53.423Z,11.47
2023-09-12T01:15:21.401Z,11.37
2023-09-12T01:17:50.851Z,11.35
2023-09-12T01:20:35.441Z,11.39
2023-09-12T01:23:41.889Z,11.38
2023-09-12T01:26:12.227Z,11.27
2023-09-12T01:28:44.333Z,11.41
2023-09-12T01:31:14.466Z,11.12
2023-09-12T01:33:42.344Z,11.10
2023-09-12T01:36:11.714Z,11.17
2023-09-12T01:38:39.401Z,11.13
2023-09-12T01:41:08.099Z,11.31
2023-09-12T01:43:37.690Z,11.03
2023-09-12T01:46:05.259Z,10.78
2023-09-12T01:48:35.979Z,10.79
2023-09-12T01:51:05.544Z,10.78
2023-09-12T01:53:35.664Z,10.62
2023-09-12T01:56:03.319Z,10.69
2023-09-12T01:58:32.744Z,10.52
2023-09-12T02:01:00.840Z,10.47
2023-09-12T02:03:28.760Z,10.55
2023-09-12T02:05:56.212Z,10.74
2023-09-12T02:08:23.653Z,10.72
2023-09-12T02:10:51.412Z,10.75
2023-09-12T02:13:18.983Z,10.80
2023-09-12T02:15:46.562Z,10.74
2023-09-12T02:18:14.526Z,10.62
2023-09-12T02:20:47.051Z,10.57
2023-09-12T02:23:16.457Z,10.20
2023-09-12T02:25:44.244Z,10.34
2023-09-12T02:28:11.726Z,10.48
2023-09-12T02:30:42.148Z,10.37
2023-09-12T02:33:10.730Z,10.53
2023-09-12T02:35:38.205Z,10.46
2023-09-12T02:38:05.599Z,10.51
2023-09-12T02:40:33.434Z,10.51
2023-09-12T02:43:00.899Z,10.42
2023-09-12T02:45:28.626Z,10.51
2023-09-12T02:47:56.601Z,10.49
2023-09-12T02:50:24.146Z,10.38
2023-09-12T02:52:51.671Z,10.25
2023-09-12T02:55:19.589Z,10.41
2023-09-12T02:57:48.302Z,10.31
2023-09-12T03:00:15.942Z,10.30
2023-09-12T03:02:43.863Z,10.39
2023-09-12T03:05:12.162Z,9.89
2023-09-12T03:07:39.482Z,9.96
2023-09-12T03:10:07.686Z,9.64
2023-09-12T03:12:38.320Z,9.70
2023-09-12T03:15:08.945Z,9.99
2023-09-12T03:17:38.503Z,9.86
2023-09-12T03:20:09.574Z,9.70
2023-09-12T03:22:40.135Z,9.61
2023-09-12T03:25:08.296Z,9.64
2023-09-12T03:27:35.921Z,9.79
2023-09-12T03:30:05.276Z,9.88
2023-09-12T03:32:33.126Z,9.87
2023-09-12T03:35:00.662Z,9.76
2023-09-12T03:37:29.834Z,9.63
2023-09-12T03:39:58.133Z,9.75
2023-09-12T03:42:31.983Z,9.78
2023-09-12T03:45:06.947Z,9.56
2023-09-12T03:47:34.439Z,9.62
2023-09-12T03:50:02.101Z,9.67
2023-09-12T03:52:30.108Z,9.63
2023-09-12T03:54:58.904Z,9.72
2023-09-12T03:57:29.122Z,9.82
2023-09-12T03:59:57.140Z,9.76
2023-09-12T04:02:24.868Z,9.75
2023-09-12T04:04:53.364Z,9.67
2023-09-12T04:07:20.982Z,9.80
2023-09-12T04:09:48.469Z,9.86
2023-09-12T04:12:16.274Z,9.70
2023-09-12T04:14:43.962Z,9.66
2023-09-12T04:17:11.547Z,9.49
2023-09-12T04:19:39.258Z,9.41
2023-09-12T04:22:07.069Z,9.46
2023-09-12T04:24:34.748Z,9.34
2023-09-12T04:27:02.730Z,9.35
2023-09-12T04:29:30.488Z,9.60
2023-09-12T04:32:00.940Z,9.67
2023-09-12T04:34:29.126Z,9.67
2023-09-12T04:36:56.623Z,9.80
2023-09-12T04:39:24.522Z,9.81
2023-09-12T04:41:52.357Z,9.77
2023-09-12T04:44:19.774Z,9.89
2023-09-12T04:46:47.832Z,9.90
2023-09-12T04:49:15.938Z,9.94
2023-09-12T04:51:44.234Z,10.04
2023-09-12T04:54:11.920Z,10.04
2023-09-12T04:56:39.703Z,9.94
2023-09-12T04:59:08.064Z,9.74
2023-09-12T05:01:35.684Z,9.77
2023-09-12T05:04:04.535Z,9.71
2023-09-12T05:06:35.642Z,9.93
2023-09-12T05:09:04.489Z,9.85
2023-09-12T05:11:32.174Z,10.09
2023-09-12T05:14:01.173Z,10.27
2023-09-12T05:16:29.055Z,10.28
2023-09-12T05:18:56.776Z,10.08
2023-09-12T05:21:24.750Z,9.82
2023-09-12T05:23:52.787Z,9.99
2023-09-12T05:26:23.286Z,9.90
2023-09-12T05:28:51.657Z,10.18
2023-09-12T05:31:20.223Z,10.00
2023-09-12T05:33:48.382Z,9.78
2023-09-12T05:36:16.055Z,10.23
2023-09-12T05:38:44.163Z,10.46
2023-09-12T05:41:11.866Z,10.57
2023-09-12T05:43:39.245Z,10.51
2023-09-12T05:46:07.046Z,10.83
2023-09-12T05:48:34.641Z,11.11
2023-09-12T05:51:02.191Z,11.34
2023-09-12T05:53:31.824Z,11.45
2023-09-12T05:55:59.344Z,11.61
2023-09-12T05:58:27.073Z,11.95
2023-09-12T06:00:54.962Z,12.08
2023-09-12T06:03:24.092Z,12.05
2023-09-12T06:05:52.322Z,12.00
2023-09-12T06:08:19.792Z,12.54
2023-09-12T06:10:47.676Z,12.77
2023-09-12T06:13:15.082Z,12.97
2023-09-12T06:15:43.035Z,13.16
2023-09-12T06:18:11.025Z,13.00
2023-09-12T06:20:39.237Z,13.14
2023-09-12T06:23:06.776Z,13.48
2023-09-12T06:25:36.649Z,13.43
2023-09-12T06:28:04.582Z,13.84
2023-09-12T06:30:32.098Z,14.14
2023-09-12T06:33:02.524Z,14.14
2023-09-12T06:35:30.481Z,14.33
2023-09-12T06:37:58.189Z,14.66
2023-09-12T06:40:26.019Z,14.50
2023-09-12T06:42:53.374Z,14.70
2023-09-12T06:45:20.824Z,15.09
2023-09-12T06:47:48.744Z,14.97
2023-09-12T06:50:16.605Z,15.36
2023-09-12T06:52:44.500Z,15.60
2023-09-12T06:55:12.488Z,15.86
2023-09-12T06:57:40.682Z,15.92
2023-09-12T07:00:08.957Z,16.06
2023-09-12T07:02:36.803Z,16.26
2023-09-12T07:05:05.151Z,16.53
2023-09-12T07:07:32.704Z,16.66
2023-09-12T07:10:16.155Z,16.92
2023-09-12T07:12:44.101Z,17.02
2023-09-12T07:15:11.936Z,17.40
2023-09-12T07:17:39.420Z,17.48
2023-09-12T07:20:12.737Z,17.75
2023-09-12T07:22:43.726Z,17.72
2023-09-12T07:25:13.226Z,18.05
2023-09-12T07:27:41.219Z,18.29
2023-09-12T07:30:09.414Z,18.57
2023-09-12T07:32:37.138Z,18.91
2023-09-12T07:35:05.537Z,18.89
2023-09-12T07:37:33.509Z,18.99
2023-09-12T07:40:01.238Z,19.24
2023-09-12T07:42:29.591Z,19.46
2023-09-12T07:44:57.014Z,19.59
2023-09-12T07:47:24.424Z,19.97
2023-09-12T07:49:55.230Z,20.10
2023-09-12T07:52:23.946Z,20.13
2023-09-12T07:54:54.041Z,20.52
2023-09-12T07:57:21.582Z,20.53
2023-09-12T07:59:48.932Z,20.81
2023-09-12T08:02:16.840Z,21.08
2023-09-12T08:04:44.770Z,21.32
2023-09-12T08:07:12.502Z,21.57
2023-09-12T08:09:54.352Z,21.79
2023-09-12T08:12:23.984Z,22.19
2023-09-12T08:14:51.361Z,22.50
2023-09-12T08:17:19.012Z,22.81
2023-09-12T08:19:46.926Z,22.36
2023-09-12T08:22:14.779Z,22.68
2023-09-12T08:24:42.449Z,22.93
2023-09-12T08:27:11.309Z,23.16
2023-09-12T08:29:39.578Z,23.22
2023-09-12T08:32:07.174Z,22.96
2023-09-12T08:34:35.080Z,23.26
2023-09-12T08:37:02.645Z,23.14
2023-09-12T08:39:43.321Z,23.31
2023-09-12T08:42:16.168Z,23.61
2023-09-12T08:44:44.677Z,23.83
2023-09-12T08:47:13.618Z,23.56
2023-09-12T08:49:43.836Z,23.63
2023-09-12T08:52:11.729Z,23.73
2023-09-12T08:54:39.167Z,23.53
2023-09-12T08:57:08.447Z,23.50
2023-09-12T08:59:38.537Z,23.69
2023-09-12T09:02:10.236Z,23.94
2023-09-12T09:04:40.676Z,23.81
2023-09-12T09:07:10.340Z,23.89
2023-09-12T09:09:38.140Z,23.77
2023-09-12T09:12:09.992Z,23.96
2023-09-12T09:14:37.995Z,24.21
2023-09-12T09:17:05.569Z,24.07
2023-09-12T09:19:51.126Z,23.99
2023-09-12T09:22:18.989Z,24.02
2023-09-12T09:24:46.492Z,24.40
2023-09-12T09:27:34.194Z,24.71
2023-09-12T09:30:02.068Z,24.84
2023-09-12T09:32:29.511Z,24.89
2023-09-12T09:34:56.893Z,24.61
2023-09-12T09:37:24.731Z,24.91
2023-09-12T09:39:53.739Z,25.02
2023-09-12T09:42:21.434Z,24.84
2023-09-12T09:44:50.206Z,24.89
2023-09-12T09:47:20.248Z,25.22
2023-09-12T09:49:48.786Z,25.07
2023-09-12T09:52:16.494Z,24.87
2023-09-12T09:54:47.099Z,25.24
2023-09-12T09:57:14.466Z,25.21
2023-09-12T09:59:42.463Z,25.50
2023-09-12T10:02:20.669Z,25.71
2023-09-12T10:05:00.410Z,25.71
2023-09-12T10:07:29.978Z,26.00
2023-09-12T10:09:59.399Z,25.78
2023-09-12T10:12:29.986Z,26.00
2023-09-12T10:15:00.712Z,25.96
2023-09-12T10:17:37.049Z,25.76
2023-09-12T10:20:12.669Z,26.16
2023-09-12T10:23:38.372Z,26.29
2023-09-12T10:26:06.582Z,26.11
2023-09-12T10:28:34.355Z,26.44
2023-09-12T10:31:03.200Z,26.47
2023-09-12T10:33:32.830Z,26.31
2023-09-12T10:36:01.107Z,26.68
2023-09-12T10:38:31.366Z,27.12
2023-09-12T10:41:01.996Z,27.13
2023-09-12T10:43:31.263Z,26.85
2023-09-12T10:46:00.727Z,27.10
2023-09-12T10:48:28.173Z,27.01
2023-09-12T10:51:00.696Z,26.41
2023-09-12T10:53:31.312Z,26.69
2023-09-12T10:56:14.042Z,27.10
2023-09-12T10:59:07.746Z,26.97
2023-09-12T11:01:43.700Z,27.07
2023-09-12T11:04:20.680Z,26.98
2023-09-12T11:06:51.466Z,27.31
2023-09-12T11:09:23.462Z,27.84
2023-09-12T11:11:56.907Z,27.86
2023-09-12T11:14:25.613Z,27.96
2023-09-12T11:17:19.294Z,27.83
2023-09-12T11:19:54.551Z,28.05
2023-09-12T11:22:30.546Z,27.47
2023-09-12T11:24:58.553Z,27.39
2023-09-12T11:27:32.408Z,27.24
2023-09-12T11:30:07.354Z,27.57
2023-09-12T11:32:38.242Z,28.09
2023-09-12T11:35:08.556Z,27.97
2023-09-12T11:37:39.090Z,27.85
2023-09-12T11:40:12.983Z,27.91
2023-09-12T11:42:44.905Z,27.97
2023-09-12T11:45:13.131Z,27.78
2023-09-12T11:47:44.767Z,28.13
2023-09-12T11:50:36.808Z,27.97
2023-09-12T11:53:07.068Z,28.43
2023-09-12T11:55:46.699Z,28.68
2023-09-12T11:58:19.660Z,28.54
2023-09-12T12:00:51.257Z,28.65
2023-09-12T12:03:23.789Z,29.17
2023-09-12T12:05:52.681Z,29.07
2023-09-12T12:10:52.306Z,29.01
2023-09-12T12:13:21.283Z,28.95
2023-09-12T12:15:49.112Z,29.06
2023-09-12T12:18:16.761Z,28.99
2023-09-12T12:20:44.600Z,29.38
2023-09-12T12:23:12.399Z,29.24
2023-09-12T12:25:39.799Z,29.10
2023-09-12T12:28:07.555Z,29.05
2023-09-12T12:30:36.890Z,29.64
2023-09-12T12:33:37.560Z,29.66
2023-09-12T12:36:04.032Z,29.82
2023-09-12T12:38:46.666Z,29.49
2023-09-12T12:41:41.860Z,29.24
2023-09-12T12:44:17.309Z,29.36
2023-09-12T12:46:52.004Z,29.00
2023-09-12T12:49:24.389Z,29.47
2023-09-12T12:51:54.471Z,29.17
2023-09-12T12:54:24.518Z,28.79
2023-09-12T12:56:54.291Z,29.06
2023-09-12T12:59:21.676Z,29.15
2023-09-12T13:01:51.135Z,29.31
2023-09-12T13:04:20.530Z,28.90
2023-09-12T13:06:48.158Z,29.18
2023-09-12T13:09:18.231Z,29.48
2023-09-12T13:11:47.041Z,29.10
2023-09-12T13:14:15.659Z,29.26
2023-09-12T13:16:43.324Z,29.10
2023-09-12T13:19:12.622Z,28.92
2023-09-12T13:21:40.461Z,28.65
2023-09-12T13:24:08.177Z,28.96
2023-09-12T13:26:35.962Z,28.86
2023-09-12T13:29:03.997Z,29.23
2023-09-12T13:31:31.455Z,28.98
2023-09-12T13:33:59.414Z,29.00
2023-09-12T13:36:26.851Z,28.94
2023-09-12T13:38:54.199Z,28.97
2023-09-12T13:41:23.555Z,29.29
2023-09-12T13:43:50.919Z,29.46
2023-09-12T13:46:18.417Z,29.21
2023-09-12T13:48:47.669Z,29.36
2023-09-12T13:51:16.272Z,29.18
2023-09-12T13:53:43.992Z,29.16
2023-09-12T13:56:11.735Z,29.58
2023-09-12T13:58:42.976Z,29.35
2023-09-12T14:01:16.703Z,29.48
2023-09-12T14:03:55.125Z,29.21
2023-09-12T14:06:23.333Z,29.31
2023-09-12T14:08:50.938Z,29.63
2023-09-12T14:11:30.385Z,29.65
2023-09-12T14:14:11.132Z,30.19
2023-09-12T14:16:42.084Z,30.62
2023-09-12T14:19:11.873Z,30.38
2023-09-12T14:21:39.660Z,30.52
2023-09-12T14:24:08.171Z,30.79
2023-09-12T14:26:35.580Z,31.22
2023-09-12T14:29:03.380Z,31.97
2023-09-12T14:31:31.407Z,31.98
2023-09-12T14:33:59.260Z,32.27
2023-09-12T14:36:26.627Z,32.44
2023-09-12T14:38:54.309Z,32.61
2023-09-12T14:41:21.692Z,33.04
2023-09-12T14:43:49.044Z,32.99
2023-09-12T14:46:16.880Z,32.94
2023-09-12T14:48:56.500Z,33.82
2023-09-12T14:51:33.760Z,33.46
2023-09-12T14:54:02.784Z,33.42
2023-09-12T14:56:31.695Z,33.91
2023-09-12T14:58:59.064Z,34.29
2023-09-12T15:01:26.604Z,34.24
2023-09-12T15:03:54.510Z,34.11
2023-09-12T15:06:22.486Z,34.01
2023-09-12T15:08:53.202Z,35.21
2023-09-12T15:11:22.010Z,33.64
2023-09-12T15:13:50.051Z,33.48
2023-09-12T15:16:18.861Z,34.12
2023-09-12T15:18:47.751Z,34.12
2023-09-12T15:21:15.251Z,34.97
2023-09-12T15:23:42.960Z,35.49
2023-09-12T15:26:11.152Z,34.63
2023-09-12T15:28:38.877Z,34.80
2023-09-12T15:31:06.586Z,33.77
2023-09-12T15:33:34.487Z,33.04
2023-09-12T15:36:02.249Z,33.76
2023-09-12T15:38:30.103Z,34.53
2023-09-12T15:40:59.676Z,33.93
2023-09-12T15:43:28.067Z,33.54
2023-09-12T15:45:55.812Z,32.55
2023-09-12T15:48:23.864Z,31.27
2023-09-12T15:50:52.130Z,30.44
2023-09-12T15:53:19.535Z,29.12
2023-09-12T15:55:49.890Z,28.90
2023-09-12T15:58:17.439Z,28.90
2023-09-12T16:00:44.784Z,28.66
2023-09-12T16:03:12.815Z,27.94
2023-09-12T16:05:40.544Z,27.72
2023-09-12T16:08:09.080Z,27.60
2023-09-12T16:10:37.951Z,27.38
2023-09-12T16:13:05.789Z,27.17
2023-09-12T16:15:35.490Z,26.75
2023-09-12T16:18:03.586Z,26.33
2023-09-12T16:20:30.908Z,25.98
2023-09-12T16:22:58.323Z,26.05
2023-09-12T16:25:26.066Z,25.81
2023-09-12T16:27:54.036Z,25.57
2023-09-12T16:30:21.694Z,25.36
2023-09-12T16:32:49.486Z,25.45
2023-09-12T16:35:17.121Z,25.42
2023-09-12T16:37:44.498Z,25.34
2023-09-12T16:40:12.808Z,24.94
2023-09-12T16:42:40.600Z,24.82
2023-09-12T16:49:24.464Z,24.53
2023-09-12T16:52:10.825Z,24.15
2023-09-12T17:04:12.527Z,23.43
2023-09-12T17:08:03.970Z,23.09
2023-09-12T17:20:15.120Z,22.31
2023-09-12T17:22:43.163Z,22.03
2023-09-12T17:25:13.980Z,22.01
2023-09-12T17:27:41.918Z,21.97
2023-09-12T17:30:11.648Z,21.74
2023-09-12T17:32:39.118Z,21.82
2023-09-12T17:35:06.903Z,21.64
2023-09-12T17:37:35.209Z,21.56
2023-09-12T17:40:02.829Z,21.48
2023-09-12T17:42:32.102Z,21.40
2023-09-12T17:45:00.306Z,21.28
2023-09-12T17:47:28.379Z,21.29
2023-09-12T17:49:57.657Z,20.92
2023-09-12T17:52:25.487Z,20.91
2023-09-12T17:54:52.930Z,20.85
2023-09-12T17:57:20.418Z,20.96
2023-09-12T17:59:49.737Z,20.77
2023-09-12T18:02:17.182Z,20.50
2023-09-12T18:04:45.136Z,20.55
2023-09-12T18:07:12.773Z,20.53
2023-09-12T18:09:40.730Z,20.28
2023-09-12T18:12:08.574Z,20.29
2023-09-12T18:14:36.108Z,20.22
2023-09-12T18:17:03.917Z,20.14
2023-09-12T18:19:32.105Z,20.01
2023-09-12T18:22:01.256Z,19.96
2023-09-12T18:24:28.887Z,20.08
2023-09-12T18:26:59.838Z,19.92
2023-09-12T18:29:27.400Z,19.69
2023-09-12T18:31:55.737Z,19.52
2023-09-12T18:34:23.521Z,19.58
2023-09-12T18:36:51.130Z,19.45
2023-09-12T18:39:19.365Z,19.39
2023-09-12T18:41:48.028Z,19.29
2023-09-12T18:44:15.668Z,19.20
2023-09-12T18:46:43.333Z,19.04
2023-09-12T18:49:12.009Z,18.81
2023-09-12T18:51:39.756Z,18.83
2023-09-12T18:54:07.362Z,18.70
2023-09-12T18:56:35.124Z,18.60
2023-09-12T18:59:03.056Z,18.71
2023-09-12T19:01:30.797Z,18.63
2023-09-12T19:03:58.759Z,18.54
2023-09-12T19:06:26.278Z,18.67
2023-09-12T19:08:53.729Z,18.53
2023-09-12T19:11:23.464Z,18.47
2023-09-12T19:13:50.919Z,18.45
2023-09-12T19:16:18.556Z,18.23
2023-09-12T19:18:47.509Z,18.16
2023-09-12T19:21:14.936Z,18.03
2023-09-12T19:23:42.696Z,17.93
2023-09-12T19:26:10.681Z,17.65
2023-09-12T19:28:38.129Z,17.48
2023-09-12T19:31:05.709Z,17.55
2023-09-12T19:33:33.738Z,17.66
2023-09-12T19:36:01.291Z,17.69
2023-09-12T19:38:28.724Z,17.77
2023-09-12T19:41:00.978Z,17.65
2023-09-12T19:43:28.494Z,17.59
2023-09-12T19:45:57.587Z,17.37
2023-09-12T19:48:25.271Z,17.32
2023-09-12T19:50:52.839Z,17.36
2023-09-12T19:53:20.899Z,17.54
2023-09-12T19:55:59.463Z,17.43
2023-09-12T19:58:27.850Z,17.01
2023-09-12T20:00:59.879Z,17.08
2023-09-12T20:03:28.597Z,16.98
2023-09-12T20:05:56.079Z,17.05
2023-09-12T20:08:24.254Z,17.09
2023-09-12T20:10:52.405Z,17.05
2023-09-12T20:13:19.987Z,16.84
2023-09-12T20:15:47.526Z,16.69
2023-09-12T20:18:15.399Z,16.63
2023-09-12T20:20:46.895Z,16.48
2023-09-12T20:23:14.842Z,16.27
2023-09-12T20:25:43.499Z,16.34
2023-09-12T20:28:13.103Z,16.39
2023-09-12T20:30:41.367Z,16.33
2023-09-12T20:33:08.906Z,16.20
2023-09-12T20:35:36.666Z,16.00
2023-09-12T20:38:06.169Z,15.98
2023-09-12T20:40:34.016Z,16.14
2023-09-12T20:43:01.646Z,16.08
2023-09-12T20:45:29.647Z,16.05
2023-09-12T20:47:57.110Z,16.04
2023-09-12T20:50:28.582Z,16.03
2023-09-12T20:53:06.303Z,15.97
2023-09-12T20:55:38.620Z,15.77
2023-09-12T20:58:06.740Z,15.51
2023-09-12T21:00:34.499Z,15.53
2023-09-12T21:03:02.120Z,15.67
2023-09-12T21:05:29.986Z,15.61
2023-09-12T21:07:58.250Z,15.53
2023-09-12T21:10:25.705Z,15.35
2023-09-12T21:12:53.485Z,15.40
2023-09-12T21:15:23.962Z,15.53
2023-09-12T21:17:52.013Z,15.28
2023-09-12T21:20:20.136Z,14.90
2023-09-12T21:22:47.690Z,15.01
2023-09-12T21:25:15.217Z,15.12
2023-09-12T21:27:43.033Z,14.99
2023-09-12T21:30:11.319Z,14.99
2023-09-12T21:32:38.718Z,14.92
2023-09-12T21:35:16.222Z,14.89
2023-09-12T21:37:44.865Z,15.13
2023-09-12T21:40:14.240Z,14.79
2023-09-12T21:42:42.109Z,14.72
2023-09-12T21:45:14.732Z,14.74
2023-09-12T21:47:44.143Z,14.74
2023-09-12T21:50:11.616Z,14.83
2023-09-12T21:52:39.439Z,14.67
2023-09-12T21:55:08.601Z,14.47
2023-09-12T21:57:36.555Z,14.66
2023-09-12T22:00:24.681Z,14.79
2023-09-12T22:02:53.407Z,14.69
2023-09-12T22:05:21.216Z,14.57
2023-09-12T22:07:49.228Z,14.55
2023-09-12T22:10:17.902Z,14.47
2023-09-12T22:12:46.179Z,14.44
2023-09-12T22:15:13.852Z,14.17
2023-09-12T22:17:41.438Z,14.36
2023-09-12T22:20:13.936Z,14.30
2023-09-12T22:22:43.988Z,14.05
2023-09-12T22:25:12.100Z,13.79
2023-09-12T22:27:40.684Z,13.62
2023-09-12T22:30:09.252Z,13.83
2023-09-12T22:32:38.416Z,13.93
2023-09-12T22:35:06.083Z,13.79
2023-09-12T22:37:33.641Z,13.80
2023-09-12T22:40:01.064Z,13.97
2023-09-12T22:42:28.807Z,13.77
2023-09-12T22:44:56.393Z,13.87
2023-09-12T22:47:23.753Z,13.95
2023-09-12T22:49:52.582Z,13.77
2023-09-12T22:52:20.690Z,13.61
2023-09-12T22:54:48.108Z,13.68
2023-09-12T22:57:15.497Z,13.69
2023-09-12T22:59:43.215Z,13.67
2023-09-12T23:02:10.591Z,13.63
2023-09-12T23:04:38.036Z,13.65
2023-09-12T23:07:05.838Z,13.63
2023-09-12T23:09:33.414Z,13.53
2023-09-12T23:12:00.795Z,13.51
2023-09-12T23:14:28.567Z,13.53
2023-09-12T23:16:56.007Z,13.35
2023-09-12T23:19:23.580Z,13.40
2023-09-12T23:21:51.452Z,13.35
2023-09-12T23:24:18.873Z,13.31
2023-09-12T23:26:46.332Z,13.18
2023-09-12T23:29:14.039Z,13.19
2023-09-12T23:31:41.479Z,12.98
2023-09-12T23:34:08.917Z,13.16
2023-09-12T23:36:36.778Z,13.20
2023-09-12T23:39:05.798Z,12.86
2023-09-12T23:41:33.209Z,12.53
2023-09-12T23:44:00.810Z,12.37
2023-09-12T23:46:28.614Z,12.40
2023-09-12T23:48:55.971Z,12.48
2023-09-12T23:51:23.720Z,12.76
2023-09-12T23:53:50.963Z,12.71
2023-09-12T23:56:18.268Z,12.79
2023-09-12T23:58:45.984Z,12.93
